createdAt,value
2022-11-18T00:01:27.700Z,11.90
2022-11-18T00:03:56.090Z,12.00
2022-11-18T00:06:27.113Z,12.10
2022-11-18T00:08:55.918Z,12.10
2022-11-18T00:11:45.454Z,12.10
2022-11-18T00:14:19.260Z,12.00
2022-11-18T00:17:00.110Z,12.00
2022-11-18T00:19:29.927Z,12.00
2022-11-18T00:21:58.299Z,12.00
2022-11-18T00:24:27.137Z,12.10
2022-11-18T00:26:56.182Z,12.10
2022-11-18T00:29:29.420Z,12.10
2022-11-18T00:31:58.067Z,12.10
2022-11-18T00:34:26.690Z,12.20
2022-11-18T00:36:55.227Z,12.20
2022-11-18T00:39:23.498Z,12.20
2022-11-18T00:42:09.846Z,12.20
2022-11-18T00:44:38.637Z,12.20
2022-11-18T00:47:07.395Z,12.20
2022-11-18T00:49:36.050Z,12.20
2022-11-18T00:52:04.437Z,12.20
2022-11-18T00:54:32.966Z,12.20
2022-11-18T00:57:01.885Z,12.20
2022-11-18T00:59:29.886Z,12.30
2022-11-18T01:01:58.602Z,12.30
2022-11-18T01:04:27.164Z,12.30
2022-11-18T01:07:38.829Z,12.30
2022-11-18T01:10:25.418Z,12.20
2022-11-18T01:13:12.408Z,12.30
2022-11-18T01:15:41.781Z,12.30
2022-11-18T01:18:10.487Z,12.30
2022-11-18T01:20:38.811Z,12.30
2022-11-18T01:23:07.745Z,12.40
2022-11-18T01:25:38.305Z,12.30
2022-11-18T01:28:06.697Z,12.30
2022-11-18T01:30:36.504Z,12.30
2022-11-18T01:33:05.676Z,12.40
2022-11-18T01:35:38.932Z,12.30
2022-11-18T01:38:08.614Z,12.30
2022-11-18T01:40:38.705Z,12.30
2022-11-18T01:43:15.954Z,12.40
2022-11-18T01:45:47.259Z,12.40
2022-11-18T01:48:33.790Z,12.40
2022-11-18T01:51:13.525Z,12.40
2022-11-18T01:53:50.562Z,12.40
2022-11-18T01:56:24.028Z,12.40
2022-11-18T01:59:06.900Z,12.40
2022-11-18T02:01:35.453Z,12.50
2022-11-18T02:04:04.362Z,12.50
2022-11-18T02:06:33.457Z,12.50
2022-11-18T02:09:02.725Z,12.50
2022-11-18T02:11:50.626Z,12.50
2022-11-18T02:14:28.646Z,12.40
2022-11-18T02:17:03.331Z,12.40
2022-11-18T02:19:52.121Z,12.40
2022-11-18T02:22:38.761Z,12.50
2022-11-18T02:25:26.808Z,12.50
2022-11-18T02:28:32.971Z,12.50
2022-11-18T02:31:17.598Z,12.50
2022-11-18T02:33:55.755Z,12.50
2022-11-18T02:36:39.213Z,12.40
2022-11-18T02:39:19.340Z,12.40
2022-11-18T02:41:50.030Z,12.30
2022-11-18T02:44:20.979Z,12.30
2022-11-18T02:46:56.181Z,12.40
2022-11-18T02:49:32.996Z,12.40
2022-11-18T02:52:02.737Z,12.40
2022-11-18T02:54:33.071Z,12.40
2022-11-18T02:57:03.288Z,12.40
2022-11-18T02:59:31.879Z,12.40
2022-11-18T03:02:00.485Z,12.40
2022-11-18T03:04:29.853Z,12.30
2022-11-18T03:07:32.778Z,12.30
2022-11-18T03:10:02.210Z,12.30
2022-11-18T03:13:03.111Z,12.20
2022-11-18T03:15:34.417Z,12.30
2022-11-18T03:18:08.376Z,12.30
2022-11-18T03:20:46.630Z,12.30
2022-11-18T03:23:21.052Z,12.30
2022-11-18T03:25:58.273Z,12.40
2022-11-18T03:28:44.063Z,12.40
2022-11-18T03:31:51.057Z,12.40
2022-11-18T03:34:23.792Z,12.40
2022-11-18T03:37:00.354Z,12.40
2022-11-18T03:39:34.732Z,12.40
2022-11-18T03:42:12.600Z,12.40
2022-11-18T03:44:52.113Z,12.40
2022-11-18T03:47:35.060Z,12.40
2022-11-18T03:50:35.458Z,12.40
2022-11-18T03:53:05.727Z,12.40
2022-11-18T03:55:40.289Z,12.40
2022-11-18T03:58:17.974Z,12.40
2022-11-18T04:00:50.299Z,12.40
2022-11-18T04:03:18.810Z,12.40
2022-11-18T04:05:52.013Z,12.40
2022-11-18T04:08:27.878Z,12.40
2022-11-18T04:11:00.360Z,12.40
2022-11-18T04:13:33.172Z,12.40
2022-11-18T04:16:01.780Z,12.40
2022-11-18T04:18:29.750Z,12.40
2022-11-18T04:20:57.782Z,12.40
2022-11-18T04:23:26.459Z,12.40
2022-11-18T04:25:54.774Z,12.40
2022-11-18T04:28:23.083Z,12.50
2022-11-18T04:30:51.799Z,12.50
2022-11-18T04:33:19.761Z,12.50
2022-11-18T04:35:48.117Z,12.50
2022-11-18T04:38:21.654Z,12.50
2022-11-18T04:40:49.938Z,12.50
2022-11-18T04:43:18.320Z,12.50
2022-11-18T04:45:46.227Z,12.50
2022-11-18T04:48:14.550Z,12.50
2022-11-18T04:50:42.882Z,12.50
2022-11-18T04:53:10.866Z,12.50
2022-11-18T04:55:39.336Z,12.50
2022-11-18T04:58:07.332Z,12.50
2022-11-18T05:00:36.007Z,12.50
2022-11-18T05:03:04.216Z,12.50
2022-11-18T05:05:35.409Z,12.50
2022-11-18T05:08:03.544Z,12.50
2022-11-18T05:10:31.548Z,12.60
2022-11-18T05:13:00.131Z,12.60
2022-11-18T05:15:28.633Z,12.60
2022-11-18T05:17:56.752Z,12.60
2022-11-18T05:20:24.676Z,12.60
2022-11-18T05:22:52.661Z,12.60
2022-11-18T05:25:20.591Z,12.60
2022-11-18T05:27:48.657Z,12.70
2022-11-18T05:30:16.771Z,12.70
2022-11-18T05:32:44.877Z,12.70
2022-11-18T05:35:13.666Z,12.60
2022-11-18T05:37:41.702Z,12.60
2022-11-18T05:40:10.359Z,12.60
2022-11-18T05:42:57.018Z,12.60
2022-11-18T05:45:25.349Z,12.60
2022-11-18T05:48:04.639Z,12.60
2022-11-18T05:50:35.338Z,12.60
2022-11-18T05:53:05.104Z,12.60
2022-11-18T05:56:13.062Z,12.60
2022-11-18T05:58:41.494Z,12.70
2022-11-18T06:01:12.387Z,12.70
2022-11-18T06:03:42.022Z,12.70
2022-11-18T06:06:14.236Z,12.80
2022-11-18T06:08:48.799Z,12.70
2022-11-18T06:11:19.878Z,12.70
2022-11-18T06:14:15.025Z,12.70
2022-11-18T06:16:49.292Z,12.70
2022-11-18T06:19:18.056Z,12.70
2022-11-18T06:21:47.930Z,12.80
2022-11-18T06:24:16.549Z,12.70
2022-11-18T06:26:46.031Z,12.80
2022-11-18T06:29:19.438Z,12.80
2022-11-18T06:31:49.973Z,12.80
2022-11-18T06:34:19.564Z,12.80
2022-11-18T06:36:47.496Z,12.90
2022-11-18T06:39:16.456Z,12.90
2022-11-18T06:41:44.808Z,12.90
2022-11-18T06:44:13.791Z,12.90
2022-11-18T06:46:57.355Z,12.90
2022-11-18T06:49:26.963Z,12.90
2022-11-18T06:51:56.275Z,12.90
2022-11-18T06:54:24.650Z,13.00
2022-11-18T06:56:52.653Z,13.00
2022-11-18T06:59:24.181Z,13.00
2022-11-18T07:01:53.534Z,13.00
2022-11-18T07:04:22.242Z,13.10
2022-11-18T07:06:50.192Z,13.10
2022-11-18T07:09:20.055Z,13.10
2022-11-18T07:11:48.487Z,13.10
2022-11-18T07:14:16.712Z,13.10
2022-11-18T07:16:44.804Z,13.20
2022-11-18T07:19:14.252Z,13.20
2022-11-18T07:21:43.589Z,13.30
2022-11-18T07:24:14.455Z,13.30
2022-11-18T07:26:43.422Z,13.30
2022-11-18T07:29:12.577Z,13.40
2022-11-18T07:31:41.042Z,13.40
2022-11-18T07:34:09.434Z,13.40
2022-11-18T07:36:37.894Z,13.50
2022-11-18T07:39:07.421Z,13.50
2022-11-18T07:41:36.987Z,13.60
2022-11-18T07:44:07.163Z,13.50
2022-11-18T07:46:37.645Z,13.50
2022-11-18T07:49:09.448Z,13.60
2022-11-18T07:51:40.484Z,13.60
2022-11-18T07:54:10.898Z,13.60
2022-11-18T07:56:39.942Z,13.60
2022-11-18T07:59:08.113Z,13.60
2022-11-18T08:01:36.295Z,13.60
2022-11-18T08:04:11.119Z,13.60
2022-11-18T08:06:39.781Z,13.60
2022-11-18T08:09:09.396Z,13.70
2022-11-18T08:11:37.956Z,13.80
2022-11-18T08:14:06.875Z,14.00
2022-11-18T08:16:35.840Z,14.00
2022-11-18T08:19:04.367Z,14.00
2022-11-18T08:21:32.360Z,14.10
2022-11-18T08:24:00.728Z,14.10
2022-11-18T08:26:29.631Z,14.10
2022-11-18T08:28:58.516Z,14.10
2022-11-18T08:31:28.294Z,14.20
2022-11-18T08:34:01.307Z,14.20
2022-11-18T08:36:32.671Z,14.30
2022-11-18T08:39:02.309Z,14.30
2022-11-18T08:41:39.530Z,14.30
2022-11-18T08:44:10.359Z,14.30
2022-11-18T08:46:38.605Z,14.30
2022-11-18T08:49:07.115Z,14.40
2022-11-18T08:51:36.139Z,14.80
2022-11-18T08:54:04.272Z,14.80
2022-11-18T08:56:32.497Z,14.70
2022-11-18T08:59:00.455Z,14.70
2022-11-18T09:01:30.237Z,14.60
2022-11-18T09:03:58.505Z,14.70
2022-11-18T09:06:26.814Z,14.70
2022-11-18T09:08:55.675Z,14.70
2022-11-18T09:11:26.705Z,14.80
2022-11-18T09:16:44.951Z,15.00
2022-11-18T09:19:45.632Z,15.00
2022-11-18T09:22:05.062Z,15.00
2022-11-18T09:24:33.837Z,14.90
2022-11-18T09:27:10.822Z,14.90
2022-11-18T09:29:41.786Z,14.90
2022-11-18T09:32:09.799Z,14.90
2022-11-18T09:34:37.903Z,15.00
2022-11-18T09:37:06.742Z,15.00
2022-11-18T09:39:38.806Z,15.00
2022-11-18T09:42:15.990Z,15.00
2022-11-18T09:45:16.100Z,15.10
2022-11-18T09:47:47.057Z,15.10
2022-11-18T09:53:16.716Z,15.20
2022-11-18T09:55:46.739Z,15.30
2022-11-18T09:58:24.134Z,15.40
2022-11-18T10:00:52.695Z,15.40
2022-11-18T10:03:26.254Z,15.40
2022-11-18T10:06:07.289Z,15.40
2022-11-18T10:09:03.183Z,15.20
2022-11-18T10:12:09.981Z,15.20
2022-11-18T10:15:35.632Z,15.20
2022-11-18T10:18:38.262Z,15.10
2022-11-18T10:21:30.337Z,15.10
2022-11-18T10:24:20.527Z,15.20
2022-11-18T10:26:55.999Z,15.20
2022-11-18T10:29:25.529Z,15.10
2022-11-18T10:32:04.997Z,15.20
2022-11-18T10:34:34.854Z,15.40
2022-11-18T10:37:13.451Z,15.60
2022-11-18T10:40:22.926Z,15.60
2022-11-18T10:42:51.440Z,16.00
2022-11-18T10:45:22.783Z,16.30
2022-11-18T10:48:09.556Z,16.30
2022-11-18T10:50:40.665Z,16.70
2022-11-18T10:53:29.025Z,16.70
2022-11-18T10:56:03.402Z,16.70
2022-11-18T10:58:37.973Z,16.70
2022-11-18T11:01:25.289Z,16.70
2022-11-18T11:04:18.729Z,16.70
2022-11-18T11:06:46.955Z,17.00
2022-11-18T11:09:15.902Z,17.20
2022-11-18T11:12:23.087Z,17.30
2022-11-18T11:14:57.446Z,17.50
2022-11-18T11:17:39.472Z,17.60
2022-11-18T11:20:21.742Z,17.70
2022-11-18T11:22:50.770Z,17.90
2022-11-18T11:28:25.345Z,18.30
2022-11-18T11:31:13.330Z,18.40
2022-11-18T11:33:50.930Z,18.60
2022-11-18T11:36:43.989Z,18.70
2022-11-18T11:39:32.993Z,18.80
2022-11-18T11:42:19.326Z,18.80
2022-11-18T11:44:59.344Z,19.00
2022-11-18T11:47:47.215Z,19.00
2022-11-18T11:50:27.087Z,19.10
2022-11-18T11:53:45.443Z,19.10
2022-11-18T11:56:34.320Z,19.00
2022-11-18T11:59:02.766Z,19.00
2022-11-18T12:01:46.483Z,18.80
2022-11-18T12:04:23.215Z,18.80
2022-11-18T12:06:54.617Z,18.90
2022-11-18T12:09:39.597Z,19.00
2022-11-18T12:12:35.248Z,19.10
2022-11-18T12:15:30.551Z,18.80
2022-11-18T12:18:27.036Z,18.70
2022-11-18T12:20:55.657Z,18.60
2022-11-18T12:23:29.460Z,18.50
2022-11-18T12:26:04.424Z,18.30
2022-11-18T12:28:42.960Z,18.30
2022-11-18T12:31:23.241Z,18.20
2022-11-18T12:33:58.045Z,18.20
2022-11-18T12:36:30.509Z,18.10
2022-11-18T12:39:00.109Z,18.10
2022-11-18T12:41:59.267Z,18.10
2022-11-18T12:44:30.025Z,18.00
2022-11-18T12:47:00.104Z,18.00
2022-11-18T12:49:29.002Z,18.00
2022-11-18T12:52:02.055Z,18.00
2022-11-18T12:54:40.247Z,18.00
2022-11-18T12:57:21.430Z,18.00
2022-11-18T12:59:50.310Z,18.10
2022-11-18T13:02:29.678Z,18.10
2022-11-18T13:05:09.727Z,18.20
2022-11-18T13:08:05.831Z,18.30
2022-11-18T13:10:36.249Z,18.40
2022-11-18T13:13:07.441Z,18.50
2022-11-18T13:16:18.183Z,18.40
2022-11-18T13:18:54.507Z,18.50
2022-11-18T13:21:46.936Z,18.60
2022-11-18T13:24:23.030Z,18.60
2022-11-18T13:26:59.984Z,18.60
2022-11-18T13:29:54.328Z,18.60
2022-11-18T13:32:27.413Z,18.50
2022-11-18T13:34:59.128Z,18.40
2022-11-18T13:37:29.637Z,18.30
2022-11-18T13:39:59.076Z,18.20
2022-11-18T13:42:29.848Z,18.10
2022-11-18T13:44:59.820Z,17.90
2022-11-18T13:47:37.413Z,17.80
2022-11-18T13:50:18.390Z,17.60
2022-11-18T13:52:52.140Z,17.50
2022-11-18T13:55:27.148Z,17.40
2022-11-18T13:58:24.632Z,17.30
2022-11-18T14:01:05.795Z,17.30
2022-11-18T14:03:56.258Z,17.30
2022-11-18T14:06:38.144Z,17.10
2022-11-18T14:09:26.259Z,17.20
2022-11-18T14:12:07.659Z,17.20
2022-11-18T14:14:38.276Z,17.20
2022-11-18T14:17:16.439Z,17.20
2022-11-18T14:19:46.399Z,17.20
2022-11-18T14:22:18.954Z,17.20
2022-11-18T14:25:00.870Z,17.20
2022-11-18T14:27:40.863Z,17.10
2022-11-18T14:30:28.167Z,17.10
2022-11-18T14:33:24.495Z,17.10
2022-11-18T14:36:01.270Z,17.10
2022-11-18T14:41:48.072Z,17.00
2022-11-18T14:44:17.930Z,17.00
2022-11-18T14:46:53.594Z,17.00
2022-11-18T14:49:24.177Z,16.90
2022-11-18T14:51:53.414Z,16.80
2022-11-18T14:54:26.691Z,16.80
2022-11-18T14:57:03.615Z,16.70
2022-11-18T14:59:52.153Z,16.60
2022-11-18T15:02:20.675Z,16.50
2022-11-18T15:04:52.762Z,16.50
2022-11-18T15:07:23.763Z,16.40
2022-11-18T15:09:52.758Z,16.30
2022-11-18T15:12:20.724Z,16.20
2022-11-18T15:14:49.143Z,16.20
2022-11-18T15:17:20.335Z,16.10
2022-11-18T15:19:48.612Z,16.00
2022-11-18T15:22:16.594Z,16.00
2022-11-18T15:24:44.739Z,16.00
2022-11-18T15:27:12.925Z,16.00
2022-11-18T15:29:41.616Z,15.90
2022-11-18T15:32:09.554Z,15.90
2022-11-18T15:34:38.052Z,15.90
2022-11-18T15:37:06.121Z,15.90
2022-11-18T15:39:35.157Z,15.80
2022-11-18T15:42:03.091Z,15.80
2022-11-18T15:44:31.283Z,15.70
2022-11-18T15:47:01.654Z,15.70
2022-11-18T15:49:30.523Z,15.60
2022-11-18T15:51:58.474Z,15.50
2022-11-18T15:54:26.531Z,15.50
2022-11-18T15:56:54.571Z,15.50
2022-11-18T15:59:23.053Z,15.40
2022-11-18T16:01:54.259Z,15.40
2022-11-18T16:04:22.654Z,15.30
2022-11-18T16:06:51.139Z,15.30
2022-11-18T16:09:19.409Z,15.30
2022-11-18T16:12:06.716Z,15.20
2022-11-18T16:14:38.489Z,15.20
2022-11-18T16:17:06.894Z,15.10
2022-11-18T16:19:35.110Z,14.90
2022-11-18T16:22:03.412Z,14.90
2022-11-18T16:24:31.535Z,14.90
2022-11-18T16:26:59.945Z,14.90
2022-11-18T16:29:28.384Z,14.90
2022-11-18T16:31:56.832Z,14.90
2022-11-18T16:34:27.333Z,14.90
2022-11-18T16:36:59.780Z,14.80
2022-11-18T16:39:29.888Z,14.70
2022-11-18T16:42:07.275Z,14.60
2022-11-18T16:44:37.927Z,14.60
2022-11-18T16:47:14.384Z,14.40
2022-11-18T16:49:44.340Z,14.40
2022-11-18T16:52:13.024Z,14.30
2022-11-18T16:54:45.386Z,14.20
2022-11-18T16:57:14.900Z,14.10
2022-11-18T16:59:43.065Z,14.10
2022-11-18T17:02:15.628Z,14.10
2022-11-18T17:04:43.993Z,14.10
2022-11-18T17:07:13.496Z,14.20
2022-11-18T17:09:41.777Z,14.10
2022-11-18T17:12:09.897Z,14.10
2022-11-18T17:14:40.129Z,14.00
2022-11-18T17:17:08.184Z,14.00
2022-11-18T17:19:36.938Z,13.90
2022-11-18T17:22:05.421Z,13.90
2022-11-18T17:24:33.817Z,13.90
2022-11-18T17:27:02.372Z,13.80
2022-11-18T17:29:30.711Z,13.90
2022-11-18T17:32:00.026Z,13.90
2022-11-18T17:34:29.215Z,13.90
2022-11-18T17:37:03.106Z,13.90
2022-11-18T17:39:35.141Z,13.90
2022-11-18T17:42:15.577Z,13.90
2022-11-18T17:44:44.843Z,13.90
2022-11-18T17:47:13.024Z,13.90
2022-11-18T17:49:41.881Z,14.10
2022-11-18T17:52:10.031Z,14.00
2022-11-18T17:54:38.583Z,13.90
2022-11-18T17:57:07.085Z,13.90
2022-11-18T17:59:35.199Z,14.00
2022-11-18T18:02:03.346Z,14.00
2022-11-18T18:04:31.283Z,14.00
2022-11-18T18:06:59.885Z,13.90
2022-11-18T18:09:30.918Z,13.80
2022-11-18T18:12:00.763Z,13.70
2022-11-18T18:14:29.063Z,13.60
2022-11-18T18:16:57.215Z,13.50
2022-11-18T18:19:26.003Z,13.40
2022-11-18T18:21:54.188Z,13.40
2022-11-18T18:24:22.755Z,13.30
2022-11-18T18:26:51.283Z,13.20
2022-11-18T18:29:19.826Z,13.20
2022-11-18T18:31:48.710Z,13.10
2022-11-18T18:34:17.626Z,13.10
2022-11-18T18:36:46.240Z,13.00
2022-11-18T18:39:14.261Z,12.90
2022-11-18T18:41:42.216Z,12.90
2022-11-18T18:44:16.827Z,12.90
2022-11-18T18:46:46.951Z,12.90
2022-11-18T18:49:20.366Z,12.90
2022-11-18T18:51:55.657Z,12.90
2022-11-18T18:54:23.569Z,12.90
2022-11-18T18:56:52.668Z,12.90
2022-11-18T18:59:20.787Z,12.90
2022-11-18T19:01:50.129Z,12.90
2022-11-18T19:04:18.873Z,12.90
2022-11-18T19:06:53.676Z,12.90
2022-11-18T19:09:27.125Z,12.80
2022-11-18T19:12:14.109Z,12.80
2022-11-18T19:14:42.660Z,12.80
2022-11-18T19:17:12.435Z,12.80
2022-11-18T19:20:00.966Z,12.70
2022-11-18T19:22:32.508Z,12.60
2022-11-18T19:25:01.649Z,12.60
2022-11-18T19:27:31.236Z,12.60
2022-11-18T19:30:00.772Z,12.60
2022-11-18T19:32:29.257Z,12.60
2022-11-18T19:34:57.359Z,12.60
2022-11-18T19:37:26.367Z,12.70
2022-11-18T19:39:55.181Z,12.70
2022-11-18T19:42:50.246Z,12.60
2022-11-18T19:45:19.521Z,12.50
2022-11-18T19:47:47.483Z,12.30
2022-11-18T19:50:16.799Z,12.30
2022-11-18T19:52:47.982Z,12.40
2022-11-18T19:55:15.980Z,12.40
2022-11-18T19:57:44.338Z,12.40
2022-11-18T20:00:12.630Z,12.30
2022-11-18T20:02:41.951Z,12.30
2022-11-18T20:05:53.375Z,12.30
2022-11-18T20:08:26.465Z,12.20
2022-11-18T20:10:54.499Z,12.20
2022-11-18T20:13:23.187Z,12.10
2022-11-18T20:15:51.079Z,12.10
2022-11-18T20:18:22.264Z,12.10
2022-11-18T20:20:50.374Z,12.10
2022-11-18T20:23:19.119Z,12.00
2022-11-18T20:25:47.168Z,12.00
2022-11-18T20:28:15.150Z,12.00
2022-11-18T20:30:45.625Z,12.00
2022-11-18T20:33:13.492Z,12.00
2022-11-18T20:35:41.439Z,12.00
2022-11-18T20:38:10.530Z,12.00
2022-11-18T20:40:38.948Z,12.00
2022-11-18T20:43:12.774Z,12.00
2022-11-18T20:45:43.737Z,12.00
2022-11-18T20:48:12.027Z,12.00
2022-11-18T20:50:40.367Z,12.10
2022-11-18T20:53:08.744Z,12.00
2022-11-18T20:55:40.314Z,12.10
2022-11-18T20:58:09.166Z,12.10
2022-11-18T21:00:37.822Z,12.20
2022-11-18T21:03:06.320Z,12.20
2022-11-18T21:05:35.793Z,12.10
2022-11-18T21:08:04.000Z,12.20
2022-11-18T21:10:33.847Z,12.30
2022-11-18T21:13:20.730Z,12.30
2022-11-18T21:15:49.487Z,12.30
2022-11-18T21:18:17.387Z,12.30
2022-11-18T21:21:04.618Z,12.30
2022-11-18T21:23:33.659Z,12.30
2022-11-18T21:26:02.657Z,12.40
2022-11-18T21:28:31.265Z,12.40
2022-11-18T21:30:59.812Z,12.40
2022-11-18T21:33:28.194Z,12.40
2022-11-18T21:35:59.444Z,12.30
2022-11-18T21:38:27.434Z,12.30
2022-11-18T21:40:55.433Z,12.30
2022-11-18T21:43:50.194Z,12.30
2022-11-18T21:46:16.009Z,12.20
2022-11-18T21:48:44.987Z,12.10
2022-11-18T21:51:15.427Z,12.10
2022-11-18T21:53:43.731Z,12.10
2022-11-18T21:56:17.747Z,12.00
2022-11-18T21:58:47.419Z,12.00
2022-11-18T22:01:34.071Z,12.00
2022-11-18T22:04:04.952Z,12.00
2022-11-18T22:06:34.503Z,12.00
2022-11-18T22:09:03.670Z,11.90
2022-11-18T22:11:31.917Z,11.90
2022-11-18T22:14:00.628Z,11.90
2022-11-18T22:16:28.574Z,11.90
2022-11-18T22:19:01.456Z,11.90
2022-11-18T22:21:33.307Z,11.90
2022-11-18T22:24:01.722Z,12.00
2022-11-18T22:26:30.158Z,12.10
2022-11-18T22:28:58.880Z,12.10
2022-11-18T22:31:28.120Z,12.20
2022-11-18T22:33:56.870Z,12.20
2022-11-18T22:36:26.757Z,12.10
2022-11-18T22:38:55.474Z,12.10
2022-11-18T22:41:44.611Z,12.00
2022-11-18T22:44:15.274Z,12.00
2022-11-18T22:46:45.613Z,12.00
2022-11-18T22:49:14.108Z,12.00
2022-11-18T22:51:42.413Z,12.10
2022-11-18T22:54:40.488Z,12.10
2022-11-18T22:56:59.384Z,12.20
2022-11-18T22:59:28.642Z,12.20
2022-11-18T23:01:56.642Z,12.20
2022-11-18T23:04:25.488Z,12.20
2022-11-18T23:06:53.502Z,12.20
2022-11-18T23:09:21.754Z,12.20
2022-11-18T23:12:08.393Z,12.10
2022-11-18T23:14:37.380Z,12.10
2022-11-18T23:17:05.736Z,12.10
2022-11-18T23:19:37.010Z,12.10
2022-11-18T23:22:04.960Z,12.10
2022-11-18T23:24:33.324Z,12.10
2022-11-18T23:27:01.191Z,12.00
2022-11-18T23:29:29.688Z,12.10
2022-11-18T23:31:58.065Z,12.10
2022-11-18T23:34:26.243Z,12.10
2022-11-18T23:36:54.656Z,12.10
2022-11-18T23:39:22.825Z,12.10
2022-11-18T23:41:51.527Z,12.10
2022-11-18T23:44:40.701Z,12.10
2022-11-18T23:47:08.658Z,12.10
2022-11-18T23:49:36.606Z,12.10
2022-11-18T23:52:04.845Z,12.00
2022-11-18T23:54:33.465Z,12.00
2022-11-18T23:57:04.547Z,12.00
2022-11-18T23:59:34.219Z,12.00
